Lesley Pg — MXUG5 — position and weather

sailwx.info

Track history (hours):
 
Tides and Currents Weather Stations Pressure Air Temp Water Temp Dewpoint Dewpoint Depression Visibility Wind Speed Wind Dir Waves Ship Positions

Lesley Pg

Last reported at 2018-Jul-06 05:30 UTC. Time now 2018-Jul-16 22:05 UTC.
Position N 14°30' W 061°21'.
Warning: this ship's position is 10 days out of date.

Length 102 m; draft 5 m.

Type: Tanker. MMSI: 234910000.

Date/timePositionNaut miles runAvg speedWind from/ knotsBaromVisibWave heightAir tempDewpointWater temp
2018-Jul-06 05:30N 14°30' W 061°21'151 6.0
2018-Jul-05 04:30N 16°45' W 062°30'611.8
2018-Jul-05 03:58N 16°50' W 062°33'611.9
2018-Jul-05 03:30N 16°55' W 062°36'611.7
2018-Jul-05 03:00N 17°00' W 062°40'711.8
2018-Jul-05 02:24N 17°06' W 062°43'7 0.4
2018-Jul-04 10:57N 17°13' W 062°43'612.3
2018-Jul-04 10:26N 17°07' W 062°43'612.3
2018-Jul-04 09:55N 17°01' W 062°40'512.7
2018-Jul-04 09:30N 16°57' W 062°38'15512.3
2018-Jul-03 20:52N 14°39' W 061°23'513.1
2018-Jul-03 20:30N 14°34' W 061°22'  
Track history (hours):
 
Tides and Currents Weather Stations Pressure Air Temp Water Temp Dewpoint Dewpoint Depression Visibility Wind Speed Wind Dir Waves Ship Positions

Lesley Pg

Last reported at 2018-Jul-06 05:30 UTC. Time now 2018-Jul-16 22:05 UTC.
Position N 14°30' W 061°21'.
Warning: this ship's position is 10 days out of date.

Length 102 m; draft 5 m.

Type: Tanker. MMSI: 234910000.

Date/timePositionNaut miles runAvg speedWind from/ knotsBaromVisibWave heightAir tempDewpointWater temp
2018-Jul-06 05:30N 14°30' W 061°21'151 6.0
2018-Jul-05 04:30N 16°45' W 062°30'611.8
2018-Jul-05 03:58N 16°50' W 062°33'611.9
2018-Jul-05 03:30N 16°55' W 062°36'611.7
2018-Jul-05 03:00N 17°00' W 062°40'711.8
2018-Jul-05 02:24N 17°06' W 062°43'7 0.4
2018-Jul-04 10:57N 17°13' W 062°43'612.3
2018-Jul-04 10:26N 17°07' W 062°43'612.3
2018-Jul-04 09:55N 17°01' W 062°40'512.7
2018-Jul-04 09:30N 16°57' W 062°38'15512.3
2018-Jul-03 20:52N 14°39' W 061°23'513.1
2018-Jul-03 20:30N 14°34' W 061°22'  

Dump ship's entire track history